Aviation Digital Data Service (ADDS)

Output produced by METARs form (1948 UTC 23 January 2019)
found at http://www.aviationweather.gov/metar/data/
 
METAR text: PLCH 231900Z 10007KT 9999 SCT020 28/23 Q1010
Conditions at: PLCH (CHRISTMAS/CASSID, UM, US) observed 1900 UTC 23 January 2019
Temperature: 28.0°C (82°F)
Dewpoint: 23.0°C (73°F) [RH = 74%]
Pressure (altimeter): 29.82 inches Hg (1010.0 mb)
Winds: from the E (100 degrees) at 8 MPH (7 knots; 3.6 m/s)
Visibility: 6 or more miles (10+ km)
Ceiling: at least 12,000 feet AGL
Clouds: scattered clouds at 2000 feet AGL
Weather: no significant weather observed at this time

METAR text: PLCH 231800Z 09007KT 9999 SCT020 27/23 Q1009
Conditions at: PLCH (CHRISTMAS/CASSID, UM, US) observed 1800 UTC 23 January 2019
Temperature: 27.0°C (81°F)
Dewpoint: 23.0°C (73°F) [RH = 79%]
Pressure (altimeter): 29.79 inches Hg (1009.0 mb)
Winds: from the E (90 degrees) at 8 MPH (7 knots; 3.6 m/s)
Visibility: 6 or more miles (10+ km)
Ceiling: at least 12,000 feet AGL
Clouds: scattered clouds at 2000 feet AGL
Weather: no significant weather observed at this time

METAR text: PLCH 231700Z 09005KT 9999 FEW020 26/23 Q1008
Conditions at: PLCH (CHRISTMAS/CASSID, UM, US) observed 1700 UTC 23 January 2019
Temperature: 26.0°C (79°F)
Dewpoint: 23.0°C (73°F) [RH = 84%]
Pressure (altimeter): 29.76 inches Hg (1008.0 mb)
Winds: from the E (90 degrees) at 6 MPH (5 knots; 2.6 m/s)
Visibility: 6 or more miles (10+ km)
Ceiling: at least 12,000 feet AGL
Clouds: few clouds at 2000 feet AGL
Weather: no significant weather observed at this time

METAR text: PLCH 231600Z 11005KT 9999 FEW020 26/25 Q1008
Conditions at: PLCH (CHRISTMAS/CASSID, UM, US) observed 1600 UTC 23 January 2019
Temperature: 26.0°C (79°F)
Dewpoint: 25.0°C (77°F) [RH = 94%]
Pressure (altimeter): 29.76 inches Hg (1008.0 mb)
Winds: from the ESE (110 degrees) at 6 MPH (5 knots; 2.6 m/s)
Visibility: 6 or more miles (10+ km)
Ceiling: at least 12,000 feet AGL
Clouds: few clouds at 2000 feet AGL
Weather: no significant weather observed at this time

METAR text: PLCH 231500Z 10007KT 9999 FEW020 26/23 Q1007
Conditions at: PLCH (CHRISTMAS/CASSID, UM, US) observed 1500 UTC 23 January 2019
Temperature: 26.0°C (79°F)
Dewpoint: 23.0°C (73°F) [RH = 84%]
Pressure (altimeter): 29.73 inches Hg (1007.0 mb)
Winds: from the E (100 degrees) at 8 MPH (7 knots; 3.6 m/s)
Visibility: 6 or more miles (10+ km)
Ceiling: at least 12,000 feet AGL
Clouds: few clouds at 2000 feet AGL
Weather: no significant weather observed at this time

METAR text: PLCH 231400Z 09005KT 9999 FEW020 26/23 Q1007
Conditions at: PLCH (CHRISTMAS/CASSID, UM, US) observed 1400 UTC 23 January 2019
Temperature: 26.0°C (79°F)
Dewpoint: 23.0°C (73°F) [RH = 84%]
Pressure (altimeter): 29.73 inches Hg (1007.0 mb)
Winds: from the E (90 degrees) at 6 MPH (5 knots; 2.6 m/s)
Visibility: 6 or more miles (10+ km)
Ceiling: at least 12,000 feet AGL
Clouds: few clouds at 2000 feet AGL
Weather: no significant weather observed at this time

METAR text: PLCH 231300Z 08008KT 9999 FEW020 26/23 Q1007
Conditions at: PLCH (CHRISTMAS/CASSID, UM, US) observed 1300 UTC 23 January 2019
Temperature: 26.0°C (79°F)
Dewpoint: 23.0°C (73°F) [RH = 84%]
Pressure (altimeter): 29.73 inches Hg (1007.0 mb)
Winds: from the E (80 degrees) at 9 MPH (8 knots; 4.1 m/s)
Visibility: 6 or more miles (10+ km)
Ceiling: at least 12,000 feet AGL
Clouds: few clouds at 2000 feet AGL
Weather: no significant weather observed at this time

METAR text: PLCH 231200Z 09006KT 9999 FEW020 26/23 Q1007
Conditions at: PLCH (CHRISTMAS/CASSID, UM, US) observed 1200 UTC 23 January 2019
Temperature: 26.0°C (79°F)
Dewpoint: 23.0°C (73°F) [RH = 84%]
Pressure (altimeter): 29.73 inches Hg (1007.0 mb)
Winds: from the E (90 degrees) at 7 MPH (6 knots; 3.1 m/s)
Visibility: 6 or more miles (10+ km)
Ceiling: at least 12,000 feet AGL
Clouds: few clouds at 2000 feet AGL
Weather: no significant weather observed at this time

METAR text: PLCH 231100Z 09007KT 9999 SCT020 26/23 Q1008
Conditions at: PLCH (CHRISTMAS/CASSID, UM, US) observed 1100 UTC 23 January 2019
Temperature: 26.0°C (79°F)
Dewpoint: 23.0°C (73°F) [RH = 84%]
Pressure (altimeter): 29.76 inches Hg (1008.0 mb)
Winds: from the E (90 degrees) at 8 MPH (7 knots; 3.6 m/s)
Visibility: 6 or more miles (10+ km)
Ceiling: at least 12,000 feet AGL
Clouds: scattered clouds at 2000 feet AGL
Weather: no significant weather observed at this time

METAR text: PLCH 231000Z 10008KT 9999 SCT020 26/24 Q1008
Conditions at: PLCH (CHRISTMAS/CASSID, UM, US) observed 1000 UTC 23 January 2019
Temperature: 26.0°C (79°F)
Dewpoint: 24.0°C (75°F) [RH = 89%]
Pressure (altimeter): 29.76 inches Hg (1008.0 mb)
Winds: from the E (100 degrees) at 9 MPH (8 knots; 4.1 m/s)
Visibility: 6 or more miles (10+ km)
Ceiling: at least 12,000 feet AGL
Clouds: scattered clouds at 2000 feet AGL
Weather: no significant weather observed at this time

METAR text: PLCH 230900Z 09007KT 9999 SCT019 26/23 Q1008
Conditions at: PLCH (CHRISTMAS/CASSID, UM, US) observed 0900 UTC 23 January 2019
Temperature: 26.0°C (79°F)
Dewpoint: 23.0°C (73°F) [RH = 84%]
Pressure (altimeter): 29.76 inches Hg (1008.0 mb)
Winds: from the E (90 degrees) at 8 MPH (7 knots; 3.6 m/s)
Visibility: 6 or more miles (10+ km)
Ceiling: at least 12,000 feet AGL
Clouds: scattered clouds at 1900 feet AGL
Weather: no significant weather observed at this time

METAR text: PLCH 230800Z 11007KT 9999 SCT020 26/23 Q1008
Conditions at: PLCH (CHRISTMAS/CASSID, UM, US) observed 0800 UTC 23 January 2019
Temperature: 26.0°C (79°F)
Dewpoint: 23.0°C (73°F) [RH = 84%]
Pressure (altimeter): 29.76 inches Hg (1008.0 mb)
Winds: from the ESE (110 degrees) at 8 MPH (7 knots; 3.6 m/s)
Visibility: 6 or more miles (10+ km)
Ceiling: at least 12,000 feet AGL
Clouds: scattered clouds at 2000 feet AGL
Weather: no significant weather observed at this time

METAR text: PLCH 230700Z 11005KT 9999 FEW020 SCT300 26/23 Q1008
Conditions at: PLCH (CHRISTMAS/CASSID, UM, US) observed 0700 UTC 23 January 2019
Temperature: 26.0°C (79°F)
Dewpoint: 23.0°C (73°F) [RH = 84%]
Pressure (altimeter): 29.76 inches Hg (1008.0 mb)
Winds: from the ESE (110 degrees) at 6 MPH (5 knots; 2.6 m/s)
Visibility: 6 or more miles (10+ km)
Ceiling: at least 12,000 feet AGL
Clouds: few clouds at 2000 feet AGL
scattered clouds at 30000 feet AGL
Weather: no significant weather observed at this time

METAR text: PLCH 230600Z 12006KT 9999 FEW020 27/23 Q1007
Conditions at: PLCH (CHRISTMAS/CASSID, UM, US) observed 0600 UTC 23 January 2019
Temperature: 27.0°C (81°F)
Dewpoint: 23.0°C (73°F) [RH = 79%]
Pressure (altimeter): 29.73 inches Hg (1007.0 mb)
Winds: from the ESE (120 degrees) at 7 MPH (6 knots; 3.1 m/s)
Visibility: 6 or more miles (10+ km)
Ceiling: at least 12,000 feet AGL
Clouds: few clouds at 2000 feet AGL
Weather: no significant weather observed at this time

METAR text: PLCH 230500Z 11008KT 9999 FEW020 SCT300 27/23 Q1007
Conditions at: PLCH (CHRISTMAS/CASSID, UM, US) observed 0500 UTC 23 January 2019
Temperature: 27.0°C (81°F)
Dewpoint: 23.0°C (73°F) [RH = 79%]
Pressure (altimeter): 29.73 inches Hg (1007.0 mb)
Winds: from the ESE (110 degrees) at 9 MPH (8 knots; 4.1 m/s)
Visibility: 6 or more miles (10+ km)
Ceiling: at least 12,000 feet AGL
Clouds: few clouds at 2000 feet AGL
scattered clouds at 30000 feet AGL
Weather: no significant weather observed at this time

METAR text: PLCH 230400Z 10010KT 9999 SCT020 BKN300 27/23 Q1006
Conditions at: PLCH (CHRISTMAS/CASSID, UM, US) observed 0400 UTC 23 January 2019
Temperature: 27.0°C (81°F)
Dewpoint: 23.0°C (73°F) [RH = 79%]
Pressure (altimeter): 29.70 inches Hg (1006.0 mb)
Winds: from the E (100 degrees) at 12 MPH (10 knots; 5.1 m/s)
Visibility: 6 or more miles (10+ km)
Ceiling: 30000 feet AGL
Clouds: scattered clouds at 2000 feet AGL
broken clouds at 30000 feet AGL
Weather: no significant weather observed at this time

METAR text: PLCH 230300Z 12006KT 9999 FEW018TCU SCT019 BKN300 28/23 Q1006
Conditions at: PLCH (CHRISTMAS/CASSID, UM, US) observed 0300 UTC 23 January 2019
Temperature: 28.0°C (82°F)
Dewpoint: 23.0°C (73°F) [RH = 74%]
Pressure (altimeter): 29.70 inches Hg (1006.0 mb)
Winds: from the ESE (120 degrees) at 7 MPH (6 knots; 3.1 m/s)
Visibility: 6 or more miles (10+ km)
Ceiling: 30000 feet AGL
Clouds: few clouds at 1800 feet AGL
scattered clouds at 1900 feet AGL
broken clouds at 30000 feet AGL
Weather: no significant weather observed at this time

METAR text: PLCH 230200Z 12008KT 9999 SCT020 BKN300 29/24 Q1006
Conditions at: PLCH (CHRISTMAS/CASSID, UM, US) observed 0200 UTC 23 January 2019
Temperature: 29.0°C (84°F)
Dewpoint: 24.0°C (75°F) [RH = 74%]
Pressure (altimeter): 29.70 inches Hg (1006.0 mb)
Winds: from the ESE (120 degrees) at 9 MPH (8 knots; 4.1 m/s)
Visibility: 6 or more miles (10+ km)
Ceiling: 30000 feet AGL
Clouds: scattered clouds at 2000 feet AGL
broken clouds at 30000 feet AGL
Weather: no significant weather observed at this time

METAR text: PLCH 230100Z 10012KT 9999 SCT020 BKN300 29/22 Q1006
Conditions at: PLCH (CHRISTMAS/CASSID, UM, US) observed 0100 UTC 23 January 2019
Temperature: 29.0°C (84°F)
Dewpoint: 22.0°C (72°F) [RH = 66%]
Pressure (altimeter): 29.70 inches Hg (1006.0 mb)
Winds: from the E (100 degrees) at 14 MPH (12 knots; 6.2 m/s)
Visibility: 6 or more miles (10+ km)
Ceiling: 30000 feet AGL
Clouds: scattered clouds at 2000 feet AGL
broken clouds at 30000 feet AGL
Weather: no significant weather observed at this time

METAR text: PLCH 230000Z 11009KT 9999 FEW020 BKN300 29/22 Q1007
Conditions at: PLCH (CHRISTMAS/CASSID, UM, US) observed 0000 UTC 23 January 2019
Temperature: 29.0°C (84°F)
Dewpoint: 22.0°C (72°F) [RH = 66%]
Pressure (altimeter): 29.73 inches Hg (1007.0 mb)
Winds: from the ESE (110 degrees) at 10 MPH (9 knots; 4.6 m/s)
Visibility: 6 or more miles (10+ km)
Ceiling: 30000 feet AGL
Clouds: few clouds at 2000 feet AGL
broken clouds at 30000 feet AGL
Weather: no significant weather observed at this time

METAR text: PLCH 222300Z 09011KT 9999 SCT020 BKN300 29/23 Q1008
Conditions at: PLCH (CHRISTMAS/CASSID, UM, US) observed 2300 UTC 22 January 2019
Temperature: 29.0°C (84°F)
Dewpoint: 23.0°C (73°F) [RH = 70%]
Pressure (altimeter): 29.76 inches Hg (1008.0 mb)
Winds: from the E (90 degrees) at 13 MPH (11 knots; 5.7 m/s)
Visibility: 6 or more miles (10+ km)
Ceiling: 30000 feet AGL
Clouds: scattered clouds at 2000 feet AGL
broken clouds at 30000 feet AGL
Weather: no significant weather observed at this time

METAR text: PLCH 222200Z 11009KT 9999 FEW020 SCT300 29/23 Q1008
Conditions at: PLCH (CHRISTMAS/CASSID, UM, US) observed 2200 UTC 22 January 2019
Temperature: 29.0°C (84°F)
Dewpoint: 23.0°C (73°F) [RH = 70%]
Pressure (altimeter): 29.76 inches Hg (1008.0 mb)
Winds: from the ESE (110 degrees) at 10 MPH (9 knots; 4.6 m/s)
Visibility: 6 or more miles (10+ km)
Ceiling: at least 12,000 feet AGL
Clouds: few clouds at 2000 feet AGL
scattered clouds at 30000 feet AGL
Weather: no significant weather observed at this time

METAR text: PLCH 222100Z 11011KT 9999 SCT020 29/23 Q1009
Conditions at: PLCH (CHRISTMAS/CASSID, UM, US) observed 2100 UTC 22 January 2019
Temperature: 29.0°C (84°F)
Dewpoint: 23.0°C (73°F) [RH = 70%]
Pressure (altimeter): 29.79 inches Hg (1009.0 mb)
Winds: from the ESE (110 degrees) at 13 MPH (11 knots; 5.7 m/s)
Visibility: 6 or more miles (10+ km)
Ceiling: at least 12,000 feet AGL
Clouds: scattered clouds at 2000 feet AGL
Weather: no significant weather observed at this time

METAR text: PLCH 222000Z 12011KT 9999 FEW020 SCT300 29/23 Q1009
Conditions at: PLCH (CHRISTMAS/CASSID, UM, US) observed 2000 UTC 22 January 2019
Temperature: 29.0°C (84°F)
Dewpoint: 23.0°C (73°F) [RH = 70%]
Pressure (altimeter): 29.79 inches Hg (1009.0 mb)
Winds: from the ESE (120 degrees) at 13 MPH (11 knots; 5.7 m/s)
Visibility: 6 or more miles (10+ km)
Ceiling: at least 12,000 feet AGL
Clouds: few clouds at 2000 feet AGL
scattered clouds at 30000 feet AGL
Weather: no significant weather observed at this time

METAR text: PLCH 221900Z 13008KT 9999 SCT020 SCT300 28/22 Q1010
Conditions at: PLCH (CHRISTMAS/CASSID, UM, US) observed 1900 UTC 22 January 2019
Temperature: 28.0°C (82°F)
Dewpoint: 22.0°C (72°F) [RH = 70%]
Pressure (altimeter): 29.82 inches Hg (1010.0 mb)
Winds: from the SE (130 degrees) at 9 MPH (8 knots; 4.1 m/s)
Visibility: 6 or more miles (10+ km)
Ceiling: at least 12,000 feet AGL
Clouds: scattered clouds at 2000 feet AGL
scattered clouds at 30000 feet AGL
Weather: no significant weather observed at this time

METAR text: PLCH 221700Z 12007KT 9999 SCT019 26/23 Q1009
Conditions at: PLCH (CHRISTMAS/CASSID, UM, US) observed 1700 UTC 22 January 2019
Temperature: 26.0°C (79°F)
Dewpoint: 23.0°C (73°F) [RH = 84%]
Pressure (altimeter): 29.79 inches Hg (1009.0 mb)
Winds: from the ESE (120 degrees) at 8 MPH (7 knots; 3.6 m/s)
Visibility: 6 or more miles (10+ km)
Ceiling: at least 12,000 feet AGL
Clouds: scattered clouds at 1900 feet AGL
Weather: no significant weather observed at this time

METAR text: PLCH 221600Z 10011KT 9999 SCT020 26/23 Q1008
Conditions at: PLCH (CHRISTMAS/CASSID, UM, US) observed 1600 UTC 22 January 2019
Temperature: 26.0°C (79°F)
Dewpoint: 23.0°C (73°F) [RH = 84%]
Pressure (altimeter): 29.76 inches Hg (1008.0 mb)
Winds: from the E (100 degrees) at 13 MPH (11 knots; 5.7 m/s)
Visibility: 6 or more miles (10+ km)
Ceiling: at least 12,000 feet AGL
Clouds: scattered clouds at 2000 feet AGL
Weather: no significant weather observed at this time

METAR text: PLCH 221500Z 11006KT 9999 FEW020 BKN040 26/23 Q1007
Conditions at: PLCH (CHRISTMAS/CASSID, UM, US) observed 1500 UTC 22 January 2019
Temperature: 26.0°C (79°F)
Dewpoint: 23.0°C (73°F) [RH = 84%]
Pressure (altimeter): 29.73 inches Hg (1007.0 mb)
Winds: from the ESE (110 degrees) at 7 MPH (6 knots; 3.1 m/s)
Visibility: 6 or more miles (10+ km)
Ceiling: 4000 feet AGL
Clouds: few clouds at 2000 feet AGL
broken clouds at 4000 feet AGL
Weather: no significant weather observed at this time

METAR text: PLCH 221400Z 11008KT 9999 FEW019 BKN040 26/24 Q1008
Conditions at: PLCH (CHRISTMAS/CASSID, UM, US) observed 1400 UTC 22 January 2019
Temperature: 26.0°C (79°F)
Dewpoint: 24.0°C (75°F) [RH = 89%]
Pressure (altimeter): 29.76 inches Hg (1008.0 mb)
Winds: from the ESE (110 degrees) at 9 MPH (8 knots; 4.1 m/s)
Visibility: 6 or more miles (10+ km)
Ceiling: 4000 feet AGL
Clouds: few clouds at 1900 feet AGL
broken clouds at 4000 feet AGL
Weather: no significant weather observed at this time

METAR text: PLCH 221300Z 11006KT 9999 FEW019 BKN040 26/24 Q1008
Conditions at: PLCH (CHRISTMAS/CASSID, UM, US) observed 1300 UTC 22 January 2019
Temperature: 26.0°C (79°F)
Dewpoint: 24.0°C (75°F) [RH = 89%]
Pressure (altimeter): 29.76 inches Hg (1008.0 mb)
Winds: from the ESE (110 degrees) at 7 MPH (6 knots; 3.1 m/s)
Visibility: 6 or more miles (10+ km)
Ceiling: 4000 feet AGL
Clouds: few clouds at 1900 feet AGL
broken clouds at 4000 feet AGL
Weather: no significant weather observed at this time

METAR text: PLCH 221100Z 11005KT 9999 SCT018 BKN040 25/24 Q1008
Conditions at: PLCH (CHRISTMAS/CASSID, UM, US) observed 1100 UTC 22 January 2019
Temperature: 25.0°C (77°F)
Dewpoint: 24.0°C (75°F) [RH = 94%]
Pressure (altimeter): 29.76 inches Hg (1008.0 mb)
Winds: from the ESE (110 degrees) at 6 MPH (5 knots; 2.6 m/s)
Visibility: 6 or more miles (10+ km)
Ceiling: 4000 feet AGL
Clouds: scattered clouds at 1800 feet AGL
broken clouds at 4000 feet AGL
Weather: no significant weather observed at this time

METAR text: PLCH 221000Z 11007KT 9999 SCT018 BKN040 26/24 Q1009
Conditions at: PLCH (CHRISTMAS/CASSID, UM, US) observed 1000 UTC 22 January 2019
Temperature: 26.0°C (79°F)
Dewpoint: 24.0°C (75°F) [RH = 89%]
Pressure (altimeter): 29.79 inches Hg (1009.0 mb)
Winds: from the ESE (110 degrees) at 8 MPH (7 knots; 3.6 m/s)
Visibility: 6 or more miles (10+ km)
Ceiling: 4000 feet AGL
Clouds: scattered clouds at 1800 feet AGL
broken clouds at 4000 feet AGL
Weather: no significant weather observed at this time

METAR text: PLCH 220900Z 11005KT 9999 SCT018 BKN040 25/24 Q1009 NOSIG
Conditions at: PLCH (CHRISTMAS/CASSID, UM, US) observed 0900 UTC 22 January 2019
Temperature: 25.0°C (77°F)
Dewpoint: 24.0°C (75°F) [RH = 94%]
Pressure (altimeter): 29.79 inches Hg (1009.0 mb)
Winds: from the ESE (110 degrees) at 6 MPH (5 knots; 2.6 m/s)
Visibility: 6 or more miles (10+ km)
Ceiling: 4000 feet AGL
Clouds: scattered clouds at 1800 feet AGL
broken clouds at 4000 feet AGL
Weather: no significant weather observed at this time

METAR text: PLCH 220800Z 11008KT 9999 -SHRA SCT019 BKN040 27/24 Q1009
Conditions at: PLCH (CHRISTMAS/CASSID, UM, US) observed 0800 UTC 22 January 2019
Temperature: 27.0°C (81°F)
Dewpoint: 24.0°C (75°F) [RH = 84%]
Pressure (altimeter): 29.79 inches Hg (1009.0 mb)
Winds: from the ESE (110 degrees) at 9 MPH (8 knots; 4.1 m/s)
Visibility: 6 or more miles (10+ km)
Ceiling: 4000 feet AGL
Clouds: scattered clouds at 1900 feet AGL
broken clouds at 4000 feet AGL
Weather: -SHRA  (light rain showers)

Forecast for: PLCH (CHRISTMAS/CASSID, UM, US)
Text: TAF PLCH 231707Z 2318/2418 09008KT 9999 FEW020
Forecast period: 1800 UTC 23 January 2019 to 1800 UTC 24 January 2019
Forecast type: FROM: standard forecast or significant change
Winds: from the E (90 degrees) at 9 MPH (8 knots; 4.1 m/s)
Visibility: 6 or more miles 10+ km)
Ceiling: at least 12,000 feet AGL
Clouds: few clouds at 2000 feet AGL
Weather: no significant weather forecast for this period